Time;durP1;ratioP1;P1;durP2;ratioP2;P2;SDS_P1;SDS_P2;PMS_P1;PMS_P2;Temp;Humidity;BMP_temperature;BMP_pressure;BME280_temperature;BME280_humidity;BME280_pressure;Samples;Min_cycle;Max_cycle;Signal;HPM_P1;HPM_P2
2023/06/18 00:02:20;;;;;;;15.28;8.20;;;;;;;20.29;65.77;99383.55;1685444;85;21368;-80
2023/06/18 00:05:26;;;;;;;17.07;7.05;;;;;;;20.25;65.70;99387.39;1741036;82;21341;-80
2023/06/18 00:08:33;;;;;;;15.35;8.48;;;;;;;20.13;65.84;99381.98;1740501;82;21322;-82
2023/06/18 00:11:39;;;;;;;13.83;7.50;;;;;;;20.14;65.68;99381.46;1696687;84;21334;-80
2023/06/18 00:14:47;;;;;;;15.40;7.78;;;;;;;19.97;65.90;99378.77;1741359;82;21294;-80
2023/06/18 00:17:52;;;;;;;13.38;8.00;;;;;;;19.97;65.98;99378.77;1698014;84;21283;-80
2023/06/18 00:21:00;;;;;;;10.60;7.55;;;;;;;19.86;66.12;99374.20;1685491;85;21893;-82
2023/06/18 00:24:06;;;;;;;21.17;8.05;;;;;;;19.76;66.25;99381.00;1740695;82;21298;-82
2023/06/18 00:27:11;;;;;;;12.90;7.25;;;;;;;19.79;66.11;99379.10;1696834;83;21821;-81
2023/06/18 00:30:18;;;;;;;18.32;7.75;;;;;;;19.74;66.21;99383.20;1741311;82;21289;-81
2023/06/18 00:33:23;;;;;;;14.93;7.65;;;;;;;19.66;66.34;99385.33;1696971;84;21884;-81
2023/06/18 00:36:30;;;;;;;15.83;8.28;;;;;;;19.63;66.32;99392.80;1685203;85;21270;-79
2023/06/18 00:39:36;;;;;;;12.25;6.80;;;;;;;19.64;66.24;99393.08;1740310;82;21918;-79
2023/06/18 00:42:42;;;;;;;19.20;7.60;;;;;;;19.65;66.08;99389.75;1697504;84;21338;-79
2023/06/18 00:45:41;;;;;;;13.73;7.97;;;;;;;19.64;66.09;99393.63;1685745;85;21319;-79
2023/06/18 00:48:48;;;;;;;11.68;7.85;;;;;;;19.68;65.87;99386.47;1741177;82;21289;-81
2023/06/18 00:51:54;;;;;;;10.38;7.05;;;;;;;19.64;66.05;99397.23;1696624;84;21323;-79
2023/06/18 00:55:01;;;;;;;14.40;7.30;;;;;;;19.66;65.93;99399.74;1685104;85;21846;-81
2023/06/18 00:58:08;;;;;;;14.00;7.97;;;;;;;19.55;66.25;99400.14;1741299;82;21306;-83
2023/06/18 01:01:14;;;;;;;12.18;6.35;;;;;;;19.50;66.45;99395.91;1697127;84;21331;-80
2023/06/18 01:04:20;;;;;;;13.48;7.00;;;;;;;19.48;66.53;99398.11;1685023;85;21247;-80
2023/06/18 01:07:33;;;;;;;12.00;7.87;;;;;;;19.44;66.60;99395.56;1741103;82;21277;-80
2023/06/18 01:10:38;;;;;;;15.38;6.80;;;;;;;19.44;66.50;99398.89;1697825;84;21314;-81
2023/06/18 01:13:43;;;;;;;13.08;6.92;;;;;;;19.47;66.44;99400.57;1741199;82;21275;-79
2023/06/18 01:16:49;;;;;;;8.85;7.05;;;;;;;19.39;66.69;99397.72;1697934;84;21314;-81
2023/06/18 01:20:07;;;;;;;11.10;6.60;;;;;;;19.46;66.51;99393.36;1741487;82;21309;-80
2023/06/18 01:23:09;;;;;;;25.50;8.03;;;;;;;19.36;66.56;99399.60;1698072;84;21869;-79
2023/06/18 01:26:15;;;;;;;9.80;6.75;;;;;;;19.38;66.53;99397.95;1741738;82;21634;-81
2023/06/18 01:29:21;;;;;;;15.30;7.80;;;;;;;19.49;66.30;99402.56;1705595;84;21311;-82
2023/06/18 01:32:27;;;;;;;12.95;7.08;;;;;;;19.51;66.10;99403.68;1713462;84;21855;-82
2023/06/18 01:35:33;;;;;;;11.70;7.08;;;;;;;19.58;65.95;99405.18;1684645;85;21323;-80
2023/06/18 01:38:50;;;;;;;13.70;7.58;;;;;;;19.62;65.59;99410.54;1705976;84;21311;-82
2023/06/18 01:41:56;;;;;;;15.08;7.35;;;;;;;19.57;65.73;99406.80;1712040;84;21878;-79
2023/06/18 01:45:07;;;;;;;11.80;6.72;;;;;;;19.58;65.57;99402.41;1684308;85;21243;-80
2023/06/18 01:48:13;;;;;;;12.78;7.08;;;;;;;19.59;65.65;99406.02;1704479;84;21343;-79
2023/06/18 01:51:20;;;;;;;13.28;7.03;;;;;;;19.52;65.61;99410.34;1712494;84;21329;-82
2023/06/18 01:54:27;;;;;;;12.58;7.53;;;;;;;19.35;66.19;99404.86;1684154;85;21343;-82
2023/06/18 01:57:34;;;;;;;11.05;7.12;;;;;;;19.20;66.80;99410.74;1705612;84;21311;-79
2023/06/18 02:00:40;;;;;;;9.25;6.83;;;;;;;19.36;66.42;99415.41;1713079;84;21329;-82
2023/06/18 02:03:47;;;;;;;12.65;6.97;;;;;;;19.57;65.85;99415.13;1684513;85;21318;-79
2023/06/18 02:06:52;;;;;;;12.47;7.33;;;;;;;19.81;65.16;99418.55;1704521;84;21338;-81
2023/06/18 02:09:58;;;;;;;15.55;6.95;;;;;;;20.01;64.36;99415.17;1713034;84;21321;-80
2023/06/18 02:13:11;;;;;;;9.83;6.22;;;;;;;20.27;63.88;99419.89;1878017;76;22240;-83
2023/06/18 02:16:18;;;;;;;12.88;6.35;;;;;;;20.58;62.66;99424.41;1781540;80;21354;-80
2023/06/18 02:19:24;;;;;;;14.53;7.20;;;;;;;20.71;61.81;99420.38;1782336;80;21268;-82
2023/06/18 02:22:30;;;;;;;15.95;6.58;;;;;;;20.80;61.10;99429.90;1748799;82;21332;-82
2023/06/18 02:25:35;;;;;;;11.53;7.17;;;;;;;20.97;60.53;99422.23;1749700;82;21323;-83
2023/06/18 02:28:42;;;;;;;13.48;6.00;;;;;;;21.19;59.94;99425.75;1748506;82;21347;-80
2023/06/18 02:31:48;;;;;;;16.37;6.62;;;;;;;21.43;58.93;99427.61;1748866;82;21314;-82
2023/06/18 02:34:55;;;;;;;10.25;6.70;;;;;;;21.73;58.07;99432.21;1749936;82;21820;-80
2023/06/18 02:38:01;;;;;;;9.63;6.50;;;;;;;22.11;56.46;99432.36;1749759;82;21300;-81
2023/06/18 02:41:07;;;;;;;10.15;6.12;;;;;;;22.26;55.38;99427.45;1749177;82;21275;-83
2023/06/18 02:44:13;;;;;;;9.90;5.53;;;;;;;22.52;53.95;99433.91;1749953;82;21300;-83
2023/06/18 02:47:19;;;;;;;13.72;6.37;;;;;;;22.55;53.70;99439.77;1749897;82;21355;-81
2023/06/18 02:50:26;;;;;;;8.30;6.33;;;;;;;22.71;53.19;99435.05;1748565;82;21323;-83
2023/06/18 02:53:31;;;;;;;9.70;5.85;;;;;;;22.92;52.54;99435.94;1750053;82;21312;-83
2023/06/18 02:56:36;;;;;;;12.70;5.92;;;;;;;23.27;51.49;99435.63;1750034;82;21350;-81
2023/06/18 02:59:41;;;;;;;9.83;6.20;;;;;;;23.50;50.35;99438.38;1749887;82;21892;-81
2023/06/18 03:02:48;;;;;;;8.88;5.70;;;;;;;23.61;49.84;99432.48;1749120;82;21304;-81
2023/06/18 03:05:56;;;;;;;11.12;5.60;;;;;;;23.66;49.49;99433.89;1749472;82;21853;-82
2023/06/18 03:09:02;;;;;;;11.25;6.42;;;;;;;23.78;49.01;99429.40;1749786;82;21279;-82
2023/06/18 03:12:08;;;;;;;14.85;6.20;;;;;;;23.77;48.80;99440.86;1743536;82;21391;-82
2023/06/18 03:15:14;;;;;;;7.72;5.35;;;;;;;23.83;48.77;99428.55;1710098;84;21356;-82
2023/06/18 03:18:21;;;;;;;11.05;5.47;;;;;;;23.84;48.59;99442.21;1714946;83;21317;-82
2023/06/18 03:21:26;;;;;;;9.10;5.45;;;;;;;23.84;48.32;99441.38;1713637;83;21525;-80
2023/06/18 03:24:32;;;;;;;9.70;5.70;;;;;;;23.90;48.48;99448.61;1740549;82;21334;-81
2023/06/18 03:27:38;;;;;;;11.18;6.35;;;;;;;23.99;48.35;99446.90;1740280;82;21325;-80
2023/06/18 03:30:45;;;;;;;10.18;5.80;;;;;;;24.08;48.07;99459.15;1740223;82;21877;-80
2023/06/18 03:33:51;;;;;;;10.43;5.45;;;;;;;24.28;47.56;99461.57;1739454;82;21341;-83
2023/06/18 03:37:00;;;;;;;9.03;5.60;;;;;;;24.05;47.70;99461.14;1739381;82;21340;-80
2023/06/18 03:40:04;;;;;;;8.00;5.40;;;;;;;24.06;47.90;99467.56;1739331;82;21294;-82
2023/06/18 03:43:06;;;;;;;8.93;5.53;;;;;;;23.98;48.08;99468.97;1740066;82;21349;-82
2023/06/18 03:45:59;;;;;;;8.08;5.25;;;;;;;23.95;48.33;99466.77;1739141;82;21301;-83
2023/06/18 03:48:46;;;;;;;10.75;6.58;;;;;;;24.03;47.45;99464.77;1740715;82;21871;-82
2023/06/18 03:51:38;;;;;;;9.23;5.30;;;;;;;24.13;47.42;99470.30;1739227;82;21943;-83
2023/06/18 03:54:44;;;;;;;8.68;5.05;;;;;;;24.26;47.43;99473.05;1740759;82;21854;-80
2023/06/18 03:57:52;;;;;;;13.70;4.58;;;;;;;24.34;47.42;99466.03;1740468;82;21337;-82
2023/06/18 04:00:58;;;;;;;9.10;5.37;;;;;;;24.56;46.55;99467.91;1740106;82;21317;-82
2023/06/18 04:04:04;;;;;;;14.20;5.95;;;;;;;24.47;46.58;99471.03;1739654;82;21242;-82
2023/06/18 04:07:10;;;;;;;8.68;5.03;;;;;;;24.38;46.95;99478.34;1739339;82;21328;-82
2023/06/18 04:10:13;;;;;;;11.30;4.85;;;;;;;24.59;46.46;99464.51;1740734;82;21822;-81
2023/06/18 04:13:22;;;;;;;12.60;5.83;;;;;;;24.48;46.25;99484.70;1741592;81;21812;-81
2023/06/18 04:16:28;;;;;;;;;;;;;;;24.44;46.64;99481.38;1716108;83;21331;-82
2023/06/18 04:19:33;;;;;;;7.33;5.30;;;;;;;24.31;46.84;99481.40;1742959;82;20270;-80
2023/06/18 04:22:40;;;;;;;11.97;5.50;;;;;;;24.27;47.33;99483.66;1742999;82;21243;-80
2023/06/18 04:25:46;;;;;;;7.87;4.67;;;;;;;24.50;46.64;99486.38;1742595;81;21303;-82
2023/06/18 04:28:53;;;;;;;6.67;5.05;;;;;;;24.50;46.49;99480.22;1742516;82;21283;-80
2023/06/18 04:31:59;;;;;;;8.38;5.17;;;;;;;24.00;47.35;99486.30;1719860;82;21278;-79
2023/06/18 04:35:05;;;;;;;9.43;6.08;;;;;;;23.96;47.52;99486.59;1741736;81;21307;-83
2023/06/18 04:38:11;;;;;;;7.20;4.95;;;;;;;24.06;47.45;99494.09;1742991;82;21283;-81
2023/06/18 04:41:18;;;;;;;7.15;4.95;;;;;;;24.07;47.75;99486.81;1742238;81;21279;-82
2023/06/18 04:44:23;;;;;;;7.45;5.05;;;;;;;24.18;48.03;99483.41;1742172;82;21839;-81
2023/06/18 04:47:30;;;;;;;12.53;5.65;;;;;;;24.32;47.48;99499.83;1742960;82;21259;-81
2023/06/18 04:50:36;;;;;;;7.70;5.50;;;;;;;24.39;47.50;99496.78;1742789;81;21302;-82
2023/06/18 04:53:45;;;;;;;12.07;5.55;;;;;;;24.48;47.24;99495.05;1742703;82;21330;-80
2023/06/18 04:56:52;;;;;;;8.00;5.55;;;;;;;24.48;47.44;99488.90;1741834;81;21243;-80
2023/06/18 04:59:58;;;;;;;7.62;5.05;;;;;;;24.72;47.12;99503.02;1742089;81;21307;-82
2023/06/18 05:03:05;;;;;;;11.53;5.62;;;;;;;24.99;45.28;99490.53;1741579;82;21315;-82
2023/06/18 05:06:11;;;;;;;6.92;5.53;;;;;;;25.02;45.08;99498.89;1742184;81;21314;-81
2023/06/18 05:09:18;;;;;;;7.78;5.28;;;;;;;25.01;45.97;99503.66;1741430;82;21294;-81
2023/06/18 05:12:25;;;;;;;5.85;4.37;;;;;;;25.15;45.44;99496.87;1741633;82;21959;-82
2023/06/18 05:15:31;;;;;;;7.47;5.25;;;;;;;25.17;44.71;99498.27;1738875;81;21316;-83
2023/06/18 05:18:38;;;;;;;12.53;5.22;;;;;;;25.34;44.71;99495.59;1803559;79;21301;-80
2023/06/18 05:21:44;;;;;;;8.08;5.62;;;;;;;25.61;44.50;99497.30;1802387;79;21339;-80
2023/06/18 05:24:51;;;;;;;9.65;5.72;;;;;;;25.80;43.68;99497.98;1802839;79;21267;-80
2023/06/18 05:27:57;;;;;;;10.85;4.80;;;;;;;25.99;43.42;99501.11;1803588;79;21268;-81
2023/06/18 05:31:03;;;;;;;7.85;5.42;;;;;;;26.01;43.42;99507.81;1802771;79;21842;-81
2023/06/18 05:34:10;;;;;;;7.50;5.17;;;;;;;26.14;42.72;99508.50;1803367;79;21308;-82
2023/06/18 05:37:17;;;;;;;7.92;5.45;;;;;;;26.28;43.62;99507.78;1803510;79;21260;-81
2023/06/18 05:40:23;;;;;;;17.05;5.62;;;;;;;26.38;43.64;99504.84;1803442;79;21308;-81
2023/06/18 05:43:31;;;;;;;10.35;5.12;;;;;;;26.64;44.47;99503.98;1803594;79;21276;-80
2023/06/18 05:46:37;;;;;;;8.18;5.15;;;;;;;26.79;43.88;99507.13;1802550;79;21347;-82
2023/06/18 05:49:42;;;;;;;10.85;5.37;;;;;;;26.97;43.75;99509.92;1803667;79;21813;-82
2023/06/18 05:52:49;;;;;;;10.72;5.03;;;;;;;27.19;42.13;99509.88;1803548;79;21264;-83
2023/06/18 05:55:54;;;;;;;9.25;5.45;;;;;;;27.31;42.42;99516.44;1803031;79;21276;-82
2023/06/18 05:59:00;;;;;;;8.18;5.58;;;;;;;27.59;40.89;99522.41;1803509;79;21291;-82
2023/06/18 06:02:08;;;;;;;9.50;5.35;;;;;;;27.56;41.52;99520.20;1802227;79;21292;-81
2023/06/18 06:05:14;;;;;;;5.95;4.62;;;;;;;27.68;41.54;99510.73;1802246;79;21335;-82
2023/06/18 06:08:19;;;;;;;6.85;4.78;;;;;;;27.82;41.48;99518.39;1803694;79;21272;-81
2023/06/18 06:11:26;;;;;;;9.25;5.15;;;;;;;27.92;41.40;99524.63;1802639;79;21334;-83
2023/06/18 06:14:32;;;;;;;14.18;5.72;;;;;;;28.02;41.62;99528.65;1803565;79;21323;-81
2023/06/18 06:17:37;;;;;;;8.48;6.03;;;;;;;28.10;41.06;99542.56;1777563;81;21264;-81
2023/06/18 06:20:43;;;;;;;8.63;5.70;;;;;;;28.27;40.85;99535.73;1777483;81;21301;-81
2023/06/18 06:23:49;;;;;;;11.45;5.05;;;;;;;28.15;41.96;99533.20;1777674;81;21182;-83
2023/06/18 06:26:58;;;;;;;9.05;5.75;;;;;;;28.13;40.87;99551.77;1777565;81;21307;-82
2023/06/18 06:30:05;;;;;;;8.25;5.72;;;;;;;28.09;40.07;99542.85;1777438;81;21776;-81
2023/06/18 06:33:11;;;;;;;12.55;5.40;;;;;;;27.87;40.76;99552.00;1777462;81;21826;-81
2023/06/18 06:36:16;;;;;;;8.43;5.72;;;;;;;27.86;41.64;99544.72;1776328;81;21300;-82
2023/06/18 06:39:23;;;;;;;6.35;4.70;;;;;;;27.94;42.21;99539.77;1777376;81;21308;-80
2023/06/18 06:42:28;;;;;;;7.80;5.65;;;;;;;27.97;41.84;99540.56;1777393;81;21822;-81
2023/06/18 06:45:52;;;;;;;10.10;5.70;;;;;;;27.97;42.38;99538.59;1777037;81;21333;-81
2023/06/18 06:48:59;;;;;;;8.33;5.95;;;;;;;28.00;42.45;99544.17;1777448;81;21846;-82
2023/06/18 06:52:18;;;;;;;8.70;6.50;;;;;;;28.03;41.10;99554.77;1775569;81;21182;-80
2023/06/18 06:55:23;;;;;;;7.95;5.53;;;;;;;28.05;40.68;99544.65;1777122;81;21846;-81
2023/06/18 06:58:31;;;;;;;8.88;5.55;;;;;;;28.03;41.02;99554.20;1777371;81;21293;-82
2023/06/18 07:01:39;;;;;;;7.15;5.00;;;;;;;28.17;40.74;99560.41;1776789;81;21325;-82
2023/06/18 07:04:47;;;;;;;10.03;5.47;;;;;;;27.97;41.49;99547.59;1777626;81;21831;-81
2023/06/18 07:07:51;;;;;;;8.25;5.70;;;;;;;27.90;40.97;99553.63;1777649;81;21262;-81
2023/06/18 07:10:57;;;;;;;10.35;5.90;;;;;;;27.97;40.93;99558.83;1776973;81;21953;-82
2023/06/18 07:14:02;;;;;;;19.30;5.83;;;;;;;27.75;41.13;99553.31;1777426;81;21269;-83
2023/06/18 07:17:08;;;;;;;16.93;6.17;;;;;;;27.75;40.89;99550.50;1786447;79;21339;-81
2023/06/18 07:20:14;;;;;;;8.43;5.37;;;;;;;27.84;40.69;99563.28;1802115;79;21307;-80
2023/06/18 07:23:20;;;;;;;12.58;5.97;;;;;;;27.86;41.15;99548.94;1803506;79;21279;-81
2023/06/18 07:26:27;;;;;;;10.85;5.42;;;;;;;28.01;41.57;99569.14;1802763;79;21291;-80
2023/06/18 07:29:32;;;;;;;10.13;5.65;;;;;;;27.67;43.03;99559.63;1803629;79;21294;-80
2023/06/18 07:32:37;;;;;;;13.18;5.42;;;;;;;27.81;42.85;99558.84;1803230;79;21304;-80
2023/06/18 07:35:44;;;;;;;6.97;5.10;;;;;;;28.17;42.26;99562.65;1803225;79;21366;-81
2023/06/18 07:38:51;;;;;;;14.73;5.85;;;;;;;28.22;42.03;99559.73;1803591;79;21268;-81
2023/06/18 07:41:57;;;;;;;10.32;5.55;;;;;;;28.11;41.84;99558.28;1802371;79;21315;-81
2023/06/18 07:45:02;;;;;;;7.30;5.00;;;;;;;28.12;41.04;99566.97;1803733;79;21279;-80
2023/06/18 07:48:07;;;;;;;8.25;5.65;;;;;;;28.19;40.67;99568.81;1802434;79;21260;-82
2023/06/18 07:51:14;;;;;;;10.72;5.28;;;;;;;28.24;39.93;99569.28;1803045;79;21322;-81
2023/06/18 07:54:20;;;;;;;8.18;5.60;;;;;;;28.27;39.52;99566.66;1803531;79;21292;-81
2023/06/18 07:57:25;;;;;;;9.35;5.25;;;;;;;28.36;40.54;99573.00;1802722;79;21351;-81
2023/06/18 08:00:32;;;;;;;11.12;4.95;;;;;;;28.52;38.95;99568.75;1803311;79;21307;-80
2023/06/18 08:03:37;;;;;;;9.88;4.85;;;;;;;28.60;40.54;99581.23;1803560;79;21284;-80
2023/06/18 08:06:48;;;;;;;6.45;5.20;;;;;;;28.90;38.29;99577.77;1802507;79;21335;-81
2023/06/18 08:09:53;;;;;;;14.45;5.20;;;;;;;28.94;38.43;99578.80;1803473;79;21805;-81
2023/06/18 08:13:00;;;;;;;8.55;5.42;;;;;;;29.02;38.47;99565.97;1803553;79;21268;-82
2023/06/18 08:16:06;;;;;;;7.62;5.08;;;;;;;29.21;37.75;99583.53;1802291;79;21331;-81
2023/06/18 08:19:11;;;;;;;7.78;5.42;;;;;;;29.16;36.68;99572.39;1781425;79;21307;-82
2023/06/18 08:22:17;;;;;;;11.50;5.65;;;;;;;29.16;36.68;99572.39;1776068;81;21777;-81
2023/06/18 08:25:24;;;;;;;7.70;5.92;;;;;;;29.37;37.10;99577.56;1777081;81;21307;-81
2023/06/18 08:28:30;;;;;;;6.95;4.85;;;;;;;29.37;37.10;99577.56;1776239;81;21287;-82
2023/06/18 08:31:40;;;;;;;19.40;5.50;;;;;;;29.41;36.72;99580.00;1776420;81;21911;-81
2023/06/18 08:34:46;;;;;;;9.30;5.25;;;;;;;29.57;36.27;99582.71;1777473;81;21271;-82
2023/06/18 08:37:53;;;;;;;7.12;5.22;;;;;;;29.73;35.76;99583.14;1776545;81;21347;-82
2023/06/18 08:41:05;;;;;;;10.13;5.50;;;;;;;29.93;35.39;99573.34;1776833;81;21315;-81
2023/06/18 08:44:08;;;;;;;14.53;5.33;;;;;;;29.93;35.39;99573.34;1777746;81;21296;-81
2023/06/18 08:47:14;;;;;;;8.35;5.45;;;;;;;29.95;35.33;99569.03;1776016;81;21323;-81
2023/06/18 08:50:20;;;;;;;9.13;5.20;;;;;;;29.95;35.33;99569.03;1777291;81;21375;-81
2023/06/18 08:53:29;;;;;;;9.38;4.97;;;;;;;29.87;33.77;99560.52;1777511;81;21280;-82
2023/06/18 08:56:35;;;;;;;16.52;5.35;;;;;;;29.87;33.77;99560.52;1776633;81;21291;-82
2023/06/18 08:59:41;;;;;;;6.28;4.70;;;;;;;29.77;33.70;99569.50;1773913;80;21272;-81
2023/06/18 09:02:45;;;;;;;9.00;5.55;;;;;;;29.76;33.55;99574.06;1777534;81;21287;-82
2023/06/18 09:05:51;;;;;;;11.78;5.05;;;;;;;29.74;34.05;99566.52;1777550;81;21849;-82
2023/06/18 09:08:58;;;;;;;7.72;5.37;;;;;;;29.86;33.31;99578.59;1777692;81;21295;-83
2023/06/18 09:12:04;;;;;;;9.63;5.40;;;;;;;29.87;33.96;99573.20;1777392;81;21299;-81
2023/06/18 09:15:10;;;;;;;8.65;5.30;;;;;;;29.76;33.14;99580.52;1777422;81;21367;-81
2023/06/18 09:18:16;;;;;;;6.87;4.87;;;;;;;29.90;33.35;99576.80;1776428;79;21315;-82
2023/06/18 09:21:43;;;;;;;16.87;5.60;;;;;;;29.94;33.40;99584.88;1802715;79;22207;-81
2023/06/18 09:24:42;;;;;;;7.10;5.37;;;;;;;29.94;33.40;99584.88;1803678;79;21256;-81
2023/06/18 09:27:42;;;;;;;12.73;5.00;;;;;;;29.85;32.90;99571.30;1802109;79;21256;-82
2023/06/18 09:30:26;;;;;;;7.30;5.33;;;;;;;29.89;32.91;99574.56;1802244;79;21323;-82
2023/06/18 09:33:19;;;;;;;10.25;4.92;;;;;;;30.02;32.19;99585.51;1803247;79;21308;-81
2023/06/18 09:36:08;;;;;;;8.70;5.03;;;;;;;30.00;32.57;99572.29;1802821;79;21319;-80
2023/06/18 09:39:01;;;;;;;8.73;5.30;;;;;;;30.15;32.49;99588.81;1802475;79;21872;-81
2023/06/18 09:41:49;;;;;;;8.60;5.10;;;;;;;30.15;32.49;99588.81;1803635;79;21730;-82
2023/06/18 09:44:54;;;;;;;7.90;5.25;;;;;;;30.10;33.61;99572.01;1803596;79;21305;-80
2023/06/18 09:48:00;;;;;;;12.95;5.45;;;;;;;30.19;33.92;99572.91;1802016;79;21299;-81
2023/06/18 09:51:06;;;;;;;7.17;5.00;;;;;;;30.31;32.86;99579.95;1785892;79;21893;-82
2023/06/18 09:54:14;;;;;;;6.78;4.50;;;;;;;30.46;33.20;99580.34;1803522;79;21279;-80
2023/06/18 09:57:20;;;;;;;9.40;5.20;;;;;;;30.40;33.29;99570.95;1803589;79;21291;-82
2023/06/18 10:00:25;;;;;;;9.23;5.15;;;;;;;30.33;32.58;99571.98;1803661;79;21296;-80
2023/06/18 10:03:31;;;;;;;6.33;4.62;;;;;;;30.34;32.55;99563.77;1803642;79;21838;-82
2023/06/18 10:06:40;;;;;;;11.40;5.10;;;;;;;30.39;32.36;99591.83;1803664;79;21295;-81
2023/06/18 10:09:48;;;;;;;7.15;5.20;;;;;;;30.55;32.80;99564.27;1802341;79;21297;-81
2023/06/18 10:12:54;;;;;;;7.00;4.97;;;;;;;30.72;31.91;99573.38;1803588;79;21307;-81
2023/06/18 10:16:01;;;;;;;11.95;4.40;;;;;;;30.77;32.56;99561.96;1803086;79;21299;-80
2023/06/18 10:19:40;;;;;;;10.28;4.95;;;;;;;30.89;31.96;99566.13;1785731;79;21288;-82
2023/06/18 10:22:59;;;;;;;16.52;5.12;;;;;;;30.95;32.15;99559.15;1812485;79;21272;-81
2023/06/18 10:26:05;;;;;;;13.90;5.43;;;;;;;31.08;31.95;99549.70;1812003;79;21339;-81
2023/06/18 10:29:11;;;;;;;8.78;4.87;;;;;;;31.18;30.87;99548.54;1812483;79;21283;-81
2023/06/18 10:32:15;;;;;;;10.75;4.30;;;;;;;31.07;30.95;99560.75;1812132;79;21303;-82
2023/06/18 10:35:21;;;;;;;8.25;4.70;;;;;;;31.26;30.18;99559.84;1811641;79;21327;-82
2023/06/18 10:38:28;;;;;;;6.95;4.37;;;;;;;31.31;29.75;99560.30;1810932;79;21327;-82
2023/06/18 10:41:33;;;;;;;12.95;4.30;;;;;;;31.19;29.50;99561.49;1811326;79;21303;-82
2023/06/18 10:44:54;;;;;;;7.62;4.40;;;;;;;31.08;30.18;99553.11;1812548;79;21300;-82
2023/06/18 10:48:16;;;;;;;10.95;4.33;;;;;;;31.24;29.56;99558.50;1812528;79;21263;-80
2023/06/18 10:51:25;;;;;;;6.70;4.53;;;;;;;31.35;29.89;99563.29;1811467;79;21283;-83
2023/06/18 10:54:31;;;;;;;10.68;4.45;;;;;;;31.45;29.25;99565.77;1812706;79;21797;-82
2023/06/18 10:57:37;;;;;;;12.03;4.87;;;;;;;31.33;29.60;99558.53;1812432;79;21302;-81
2023/06/18 11:00:50;;;;;;;6.87;4.08;;;;;;;31.28;28.90;99555.30;1789230;79;21319;-82
2023/06/18 11:04:01;;;;;;;7.50;4.45;;;;;;;31.56;28.66;99582.63;1810911;79;21323;-83
2023/06/18 11:07:30;;;;;;;9.00;4.60;;;;;;;31.67;27.80;99564.17;1771043;79;21347;-80
2023/06/18 11:10:47;;;;;;;10.75;4.35;;;;;;;31.33;28.89;99568.42;1811369;79;21350;-81
2023/06/18 11:13:55;;;;;;;8.23;4.15;;;;;;;31.63;28.92;99560.94;1812417;79;21256;-83
2023/06/18 11:17:19;;;;;;;8.65;4.70;;;;;;;31.36;30.29;99565.77;1811121;79;21279;-83
2023/06/18 11:20:27;;;;;;;8.78;4.75;;;;;;;31.43;29.77;99569.50;1809326;79;21342;-82
2023/06/18 11:23:33;;;;;;;7.60;4.40;;;;;;;31.62;29.43;99565.77;1777605;81;21300;-82
2023/06/18 11:26:38;;;;;;;15.23;5.20;;;;;;;31.71;29.57;99569.41;1776660;81;21318;-82
2023/06/18 11:29:44;;;;;;;6.10;4.35;;;;;;;31.51;29.13;99548.89;1753990;81;21263;-83
2023/06/18 11:32:50;;;;;;;8.50;4.30;;;;;;;31.49;29.71;99579.48;1777613;81;21290;-83
2023/06/18 11:35:57;;;;;;;9.03;4.70;;;;;;;31.51;29.66;99563.84;1776747;81;21342;-82
2023/06/18 11:39:04;;;;;;;6.17;4.30;;;;;;;31.65;30.70;99570.73;1777675;81;21304;-83
2023/06/18 11:42:24;;;;;;;9.55;4.70;;;;;;;31.73;28.96;99566.23;1776141;81;21291;-80
2023/06/18 11:45:31;;;;;;;6.67;3.85;;;;;;;31.64;29.82;99569.66;1777154;81;21335;-83
2023/06/18 11:48:37;;;;;;;11.22;4.78;;;;;;;31.58;29.86;99569.01;1777416;81;21311;-83
2023/06/18 11:51:43;;;;;;;5.50;4.08;;;;;;;31.69;29.05;99578.80;1713128;81;21839;-82
2023/06/18 11:54:50;;;;;;;7.42;4.28;;;;;;;31.79;29.13;99569.95;1777342;81;21298;-81
2023/06/18 11:57:59;;;;;;;10.53;4.67;;;;;;;31.78;29.42;99573.95;1777383;81;21280;-81
2023/06/18 12:01:07;;;;;;;6.80;4.37;;;;;;;31.72;29.89;99572.48;1776425;81;21283;-83
2023/06/18 12:04:16;;;;;;;8.73;5.12;;;;;;;31.68;29.16;99574.89;1777551;81;21276;-82
2023/06/18 12:07:31;;;;;;;7.20;4.53;;;;;;;31.59;29.14;99581.97;1777316;81;21876;-81
2023/06/18 12:10:38;;;;;;;7.65;4.62;;;;;;;31.65;28.78;99564.25;1776026;81;21920;-82
2023/06/18 12:13:50;;;;;;;10.58;4.75;;;;;;;31.78;29.26;99557.58;1777462;81;21240;-83
2023/06/18 12:16:55;;;;;;;8.85;4.80;;;;;;;31.71;29.50;99566.59;1776246;81;21279;-81
2023/06/18 12:20:11;;;;;;;6.97;4.95;;;;;;;31.71;29.75;99551.03;1777377;81;21350;-83
2023/06/18 12:23:18;;;;;;;9.18;4.75;;;;;;;31.79;29.98;99557.23;1783248;80;21319;-83
2023/06/18 12:26:23;;;;;;;10.95;4.85;;;;;;;31.83;30.49;99556.61;1778804;80;21951;-82
2023/06/18 12:29:28;;;;;;;9.70;5.15;;;;;;;31.95;30.44;99554.75;1785534;80;21303;-82
2023/06/18 12:32:35;;;;;;;13.20;5.05;;;;;;;32.08;29.38;99559.93;1785624;80;21272;-82
2023/06/18 12:35:41;;;;;;;10.98;5.00;;;;;;;31.78;29.83;99564.06;1785202;80;21904;-82
2023/06/18 12:38:47;;;;;;;7.78;5.05;;;;;;;31.87;29.80;99575.39;1785607;80;21272;-81
2023/06/18 12:41:55;;;;;;;6.83;4.85;;;;;;;31.77;29.93;99565.82;1785402;80;21290;-82
2023/06/18 12:44:53;;;;;;;;;;;;;;;31.61;29.39;99562.67;1788333;80;21235;-83
2023/06/18 12:47:59;;;;;;;6.58;4.72;;;;;;;31.64;29.29;99564.84;1785706;80;20687;-81
2023/06/18 12:51:07;;;;;;;8.80;4.42;;;;;;;31.61;30.07;99551.95;1785076;80;21307;-83
2023/06/18 12:54:25;;;;;;;7.08;4.50;;;;;;;31.60;29.50;99563.84;1785788;80;21307;-83
2023/06/18 12:57:33;;;;;;;9.23;5.25;;;;;;;31.59;29.56;99557.95;1785514;80;21287;-80
2023/06/18 13:00:40;;;;;;;11.03;5.62;;;;;;;31.60;30.04;99570.08;1753822;80;21275;-82
2023/06/18 13:03:46;;;;;;;8.33;5.35;;;;;;;31.58;29.46;99580.31;1785650;80;21287;-82
2023/06/18 13:06:54;;;;;;;6.53;4.83;;;;;;;31.54;30.13;99576.48;1784558;80;21793;-81
2023/06/18 13:10:00;;;;;;;13.48;4.83;;;;;;;31.60;29.69;99565.84;1772485;80;21259;-82
2023/06/18 13:12:58;;;;;;;8.10;4.87;;;;;;;31.64;29.28;99580.97;1784469;79;21141;-82
2023/06/18 13:16:03;;;;;;;10.30;5.53;;;;;;;31.64;29.65;99570.48;1784849;80;21299;-83
2023/06/18 13:19:09;;;;;;;11.12;4.85;;;;;;;31.69;29.28;99566.07;1785522;80;21288;-81
2023/06/18 13:22:15;;;;;;;14.13;5.17;;;;;;;31.74;30.00;99558.83;1784417;80;21852;-81
2023/06/18 13:25:20;;;;;;;14.00;5.33;;;;;;;31.78;29.42;99566.89;1785345;80;21350;-81
2023/06/18 13:28:25;;;;;;;7.40;5.15;;;;;;;31.74;29.18;99575.79;1783790;80;21303;-81
2023/06/18 13:31:31;;;;;;;9.65;5.50;;;;;;;31.60;28.88;99575.73;1784611;80;21323;-82
2023/06/18 13:34:38;;;;;;;10.30;5.28;;;;;;;31.48;28.46;99574.42;1784999;80;21280;-81
2023/06/18 13:37:44;;;;;;;11.25;5.12;;;;;;;31.53;28.54;99566.36;1783535;80;21311;-81
2023/06/18 13:40:51;;;;;;;8.88;5.10;;;;;;;31.36;29.38;99572.01;1784219;80;21362;-83
2023/06/18 13:43:57;;;;;;;10.23;5.20;;;;;;;31.29;29.04;99573.94;1785298;80;21272;-82
2023/06/18 13:47:03;;;;;;;11.63;5.25;;;;;;;31.31;29.36;99570.18;1785521;80;21299;-81
2023/06/18 13:50:09;;;;;;;8.50;5.35;;;;;;;31.42;28.01;99570.08;1784872;80;21841;-81
2023/06/18 13:53:15;;;;;;;11.78;5.75;;;;;;;31.50;28.75;99577.73;1783808;80;21311;-82
2023/06/18 13:56:22;;;;;;;9.88;5.75;;;;;;;31.38;28.37;99575.32;1784085;80;21310;-81
2023/06/18 13:59:28;;;;;;;7.35;5.25;;;;;;;31.37;28.04;99576.48;1785596;80;21267;-82
2023/06/18 14:02:33;;;;;;;10.58;5.47;;;;;;;31.32;27.84;99580.31;1784588;80;21256;-81
2023/06/18 14:05:39;;;;;;;10.72;5.25;;;;;;;31.38;27.90;99566.84;1785307;80;21299;-83
2023/06/18 14:08:50;;;;;;;9.75;5.30;;;;;;;31.28;28.22;99575.90;1784622;80;21295;-81
2023/06/18 14:11:56;;;;;;;14.60;5.40;;;;;;;31.32;28.63;99583.72;1784508;80;21360;-83
2023/06/18 14:15:03;;;;;;;9.93;5.87;;;;;;;31.52;28.05;99585.31;1785828;80;21272;-82
2023/06/18 14:18:09;;;;;;;14.07;6.22;;;;;;;31.34;27.44;99583.66;1785675;80;21220;-82
2023/06/18 14:21:14;;;;;;;7.83;5.20;;;;;;;31.15;27.62;99588.18;1784963;80;21303;-82
2023/06/18 14:24:19;;;;;;;10.43;6.12;;;;;;;31.26;27.38;99582.44;1784794;80;21315;-82
2023/06/18 14:27:24;;;;;;;10.25;5.67;;;;;;;31.14;27.09;99590.73;1785656;80;21276;-81
2023/06/18 14:30:30;;;;;;;11.50;5.70;;;;;;;31.12;28.04;99586.01;1785436;80;21810;-82
2023/06/18 14:33:36;;;;;;;8.13;6.30;;;;;;;31.16;27.21;99596.89;1785832;80;21260;-82